sensor_id;sensor_type;location;lat;lon;timestamp;P1;durP1;ratioP1;P2;durP2;ratioP2
19985;SDS011;10154;52.474;10.768;2023-02-02T00:02:02;12.33;;;1.97;;
19985;SDS011;10154;52.474;10.768;2023-02-02T00:04:38;14.70;;;2.53;;
19985;SDS011;10154;52.474;10.768;2023-02-02T00:07:07;18.03;;;2.10;;
19985;SDS011;10154;52.474;10.768;2023-02-02T00:09:33;12.93;;;1.83;;
19985;SDS011;10154;52.474;10.768;2023-02-02T00:11:59;17.57;;;1.43;;
19985;SDS011;10154;52.474;10.768;2023-02-02T00:14:25;22.70;;;2.47;;
19985;SDS011;10154;52.474;10.768;2023-02-02T00:17:02;13.77;;;1.47;;
19985;SDS011;10154;52.474;10.768;2023-02-02T00:19:29;14.60;;;1.60;;
19985;SDS011;10154;52.474;10.768;2023-02-02T00:21:55;18.97;;;1.87;;
19985;SDS011;10154;52.474;10.768;2023-02-02T00:24:21;19.83;;;2.87;;
19985;SDS011;10154;52.474;10.768;2023-02-02T00:26:52;23.33;;;2.00;;
19985;SDS011;10154;52.474;10.768;2023-02-02T00:29:21;16.33;;;1.40;;
19985;SDS011;10154;52.474;10.768;2023-02-02T00:31:48;19.50;;;2.50;;
19985;SDS011;10154;52.474;10.768;2023-02-02T00:34:14;7.27;;;1.20;;
19985;SDS011;10154;52.474;10.768;2023-02-02T00:36:40;19.80;;;2.67;;
19985;SDS011;10154;52.474;10.768;2023-02-02T00:39:07;19.90;;;2.43;;
19985;SDS011;10154;52.474;10.768;2023-02-02T00:41:52;18.93;;;1.80;;
19985;SDS011;10154;52.474;10.768;2023-02-02T00:44:18;24.93;;;2.50;;
19985;SDS011;10154;52.474;10.768;2023-02-02T00:47:02;8.70;;;1.57;;
19985;SDS011;10154;52.474;10.768;2023-02-02T00:49:28;14.77;;;2.00;;
19985;SDS011;10154;52.474;10.768;2023-02-02T00:51:53;26.67;;;3.27;;
19985;SDS011;10154;52.474;10.768;2023-02-02T00:54:18;12.40;;;2.17;;
19985;SDS011;10154;52.474;10.768;2023-02-02T00:56:44;19.17;;;2.17;;
19985;SDS011;10154;52.474;10.768;2023-02-02T00:59:09;18.50;;;2.57;;
19985;SDS011;10154;52.474;10.768;2023-02-02T01:01:34;10.37;;;2.20;;
19985;SDS011;10154;52.474;10.768;2023-02-02T01:04:00;22.43;;;2.17;;
19985;SDS011;10154;52.474;10.768;2023-02-02T01:06:25;13.53;;;1.50;;
19985;SDS011;10154;52.474;10.768;2023-02-02T01:08:51;13.87;;;1.63;;
19985;SDS011;10154;52.474;10.768;2023-02-02T01:11:17;34.53;;;2.03;;
19985;SDS011;10154;52.474;10.768;2023-02-02T01:13:51;19.43;;;1.80;;
19985;SDS011;10154;52.474;10.768;2023-02-02T01:16:17;16.70;;;2.17;;
19985;SDS011;10154;52.474;10.768;2023-02-02T01:18:43;14.20;;;1.73;;
19985;SDS011;10154;52.474;10.768;2023-02-02T01:21:09;13.13;;;1.53;;
19985;SDS011;10154;52.474;10.768;2023-02-02T01:23:36;16.73;;;2.03;;
19985;SDS011;10154;52.474;10.768;2023-02-02T01:26:04;15.37;;;1.97;;
19985;SDS011;10154;52.474;10.768;2023-02-02T01:28:32;16.47;;;2.50;;
19985;SDS011;10154;52.474;10.768;2023-02-02T01:30:58;12.27;;;1.77;;
19985;SDS011;10154;52.474;10.768;2023-02-02T01:33:32;9.30;;;1.73;;
19985;SDS011;10154;52.474;10.768;2023-02-02T01:36:01;21.80;;;2.37;;
19985;SDS011;10154;52.474;10.768;2023-02-02T01:38:28;6.13;;;1.03;;
19985;SDS011;10154;52.474;10.768;2023-02-02T01:40:54;25.03;;;2.73;;
19985;SDS011;10154;52.474;10.768;2023-02-02T01:43:22;4.73;;;1.07;;
19985;SDS011;10154;52.474;10.768;2023-02-02T01:45:48;21.27;;;2.13;;
19985;SDS011;10154;52.474;10.768;2023-02-02T01:48:14;8.63;;;1.50;;
19985;SDS011;10154;52.474;10.768;2023-02-02T01:50:44;22.77;;;2.23;;
19985;SDS011;10154;52.474;10.768;2023-02-02T01:53:13;24.73;;;2.77;;
19985;SDS011;10154;52.474;10.768;2023-02-02T01:55:40;9.50;;;0.93;;
19985;SDS011;10154;52.474;10.768;2023-02-02T01:58:19;9.57;;;1.80;;
19985;SDS011;10154;52.474;10.768;2023-02-02T02:00:53;13.97;;;2.03;;
19985;SDS011;10154;52.474;10.768;2023-02-02T02:03:20;11.00;;;1.53;;
19985;SDS011;10154;52.474;10.768;2023-02-02T02:05:49;3.13;;;1.00;;
19985;SDS011;10154;52.474;10.768;2023-02-02T02:08:23;14.90;;;1.87;;
19985;SDS011;10154;52.474;10.768;2023-02-02T02:10:53;5.20;;;1.40;;
19985;SDS011;10154;52.474;10.768;2023-02-02T02:13:19;15.87;;;2.47;;
19985;SDS011;10154;52.474;10.768;2023-02-02T02:15:57;11.33;;;1.20;;
19985;SDS011;10154;52.474;10.768;2023-02-02T02:18:57;19.60;;;2.37;;
19985;SDS011;10154;52.474;10.768;2023-02-02T02:21:58;18.97;;;2.23;;
19985;SDS011;10154;52.474;10.768;2023-02-02T02:30:35;7.10;;;1.40;;
19985;SDS011;10154;52.474;10.768;2023-02-02T02:39:38;21.50;;;2.63;;
19985;SDS011;10154;52.474;10.768;2023-02-02T02:42:26;13.97;;;1.70;;
19985;SDS011;10154;52.474;10.768;2023-02-02T02:45:28;20.03;;;2.37;;
19985;SDS011;10154;52.474;10.768;2023-02-02T02:47:57;14.63;;;2.10;;
19985;SDS011;10154;52.474;10.768;2023-02-02T02:50:24;7.13;;;1.53;;
19985;SDS011;10154;52.474;10.768;2023-02-02T02:52:52;13.27;;;1.77;;
19985;SDS011;10154;52.474;10.768;2023-02-02T02:55:34;13.80;;;2.37;;
19985;SDS011;10154;52.474;10.768;2023-02-02T02:58:06;9.97;;;2.00;;
19985;SDS011;10154;52.474;10.768;2023-02-02T03:03:20;13.77;;;1.17;;
19985;SDS011;10154;52.474;10.768;2023-02-02T03:11:02;23.90;;;2.67;;
19985;SDS011;10154;52.474;10.768;2023-02-02T03:13:29;13.60;;;1.60;;
19985;SDS011;10154;52.474;10.768;2023-02-02T03:15:55;15.97;;;2.27;;
19985;SDS011;10154;52.474;10.768;2023-02-02T03:18:21;3.60;;;1.30;;
19985;SDS011;10154;52.474;10.768;2023-02-02T03:20:49;16.33;;;2.57;;
19985;SDS011;10154;52.474;10.768;2023-02-02T03:23:15;10.80;;;1.13;;
19985;SDS011;10154;52.474;10.768;2023-02-02T03:25:43;18.90;;;1.83;;
19985;SDS011;10154;52.474;10.768;2023-02-02T03:28:10;16.90;;;1.67;;
19985;SDS011;10154;52.474;10.768;2023-02-02T03:30:39;15.40;;;1.60;;
19985;SDS011;10154;52.474;10.768;2023-02-02T03:33:06;26.17;;;2.57;;
19985;SDS011;10154;52.474;10.768;2023-02-02T03:35:33;11.37;;;1.80;;
19985;SDS011;10154;52.474;10.768;2023-02-02T03:38:02;18.63;;;2.57;;
19985;SDS011;10154;52.474;10.768;2023-02-02T03:40:28;14.50;;;1.30;;
19985;SDS011;10154;52.474;10.768;2023-02-02T03:42:54;20.77;;;3.00;;
19985;SDS011;10154;52.474;10.768;2023-02-02T03:45:20;19.40;;;2.43;;
19985;SDS011;10154;52.474;10.768;2023-02-02T03:47:45;17.13;;;2.03;;
19985;SDS011;10154;52.474;10.768;2023-02-02T03:50:12;23.50;;;1.83;;
19985;SDS011;10154;52.474;10.768;2023-02-02T03:52:38;5.90;;;0.77;;
19985;SDS011;10154;52.474;10.768;2023-02-02T03:55:07;14.07;;;1.87;;
19985;SDS011;10154;52.474;10.768;2023-02-02T03:57:33;11.70;;;1.50;;
19985;SDS011;10154;52.474;10.768;2023-02-02T03:59:59;30.00;;;2.73;;
19985;SDS011;10154;52.474;10.768;2023-02-02T04:02:25;7.30;;;1.30;;
19985;SDS011;10154;52.474;10.768;2023-02-02T04:04:51;10.07;;;1.47;;
19985;SDS011;10154;52.474;10.768;2023-02-02T04:07:16;12.30;;;1.63;;
19985;SDS011;10154;52.474;10.768;2023-02-02T04:09:42;13.77;;;1.53;;
19985;SDS011;10154;52.474;10.768;2023-02-02T04:12:08;22.53;;;2.43;;
19985;SDS011;10154;52.474;10.768;2023-02-02T04:14:33;24.27;;;2.90;;
19985;SDS011;10154;52.474;10.768;2023-02-02T04:16:59;17.87;;;1.87;;
19985;SDS011;10154;52.474;10.768;2023-02-02T04:19:24;17.10;;;1.97;;
19985;SDS011;10154;52.474;10.768;2023-02-02T04:21:50;23.43;;;2.80;;
19985;SDS011;10154;52.474;10.768;2023-02-02T04:24:15;20.80;;;2.40;;
19985;SDS011;10154;52.474;10.768;2023-02-02T04:26:41;6.50;;;1.40;;
19985;SDS011;10154;52.474;10.768;2023-02-02T04:29:06;14.13;;;1.47;;
19985;SDS011;10154;52.474;10.768;2023-02-02T04:31:32;12.73;;;1.53;;
19985;SDS011;10154;52.474;10.768;2023-02-02T04:33:58;17.43;;;1.97;;
19985;SDS011;10154;52.474;10.768;2023-02-02T04:36:23;11.50;;;2.00;;
19985;SDS011;10154;52.474;10.768;2023-02-02T04:38:49;16.30;;;2.00;;
19985;SDS011;10154;52.474;10.768;2023-02-02T04:41:15;9.93;;;1.43;;
19985;SDS011;10154;52.474;10.768;2023-02-02T04:43:42;13.67;;;1.70;;
19985;SDS011;10154;52.474;10.768;2023-02-02T04:46:08;13.23;;;1.57;;
19985;SDS011;10154;52.474;10.768;2023-02-02T04:48:33;8.00;;;1.63;;
19985;SDS011;10154;52.474;10.768;2023-02-02T04:50:59;8.50;;;1.30;;
19985;SDS011;10154;52.474;10.768;2023-02-02T04:53:25;18.80;;;1.77;;
19985;SDS011;10154;52.474;10.768;2023-02-02T04:55:51;25.80;;;3.10;;
19985;SDS011;10154;52.474;10.768;2023-02-02T04:58:16;18.63;;;1.97;;
19985;SDS011;10154;52.474;10.768;2023-02-02T05:00:41;5.93;;;1.07;;
19985;SDS011;10154;52.474;10.768;2023-02-02T05:03:07;14.23;;;1.90;;
19985;SDS011;10154;52.474;10.768;2023-02-02T05:05:32;16.43;;;2.17;;
19985;SDS011;10154;52.474;10.768;2023-02-02T05:07:57;20.00;;;2.70;;
19985;SDS011;10154;52.474;10.768;2023-02-02T05:10:24;10.67;;;1.87;;
19985;SDS011;10154;52.474;10.768;2023-02-02T05:12:51;12.80;;;1.60;;
19985;SDS011;10154;52.474;10.768;2023-02-02T05:15:17;16.73;;;1.90;;
19985;SDS011;10154;52.474;10.768;2023-02-02T05:17:42;19.43;;;1.37;;
19985;SDS011;10154;52.474;10.768;2023-02-02T05:20:08;21.73;;;2.13;;
19985;SDS011;10154;52.474;10.768;2023-02-02T05:22:34;14.93;;;1.63;;
19985;SDS011;10154;52.474;10.768;2023-02-02T05:24:59;11.53;;;1.77;;
19985;SDS011;10154;52.474;10.768;2023-02-02T05:27:24;16.07;;;2.30;;
19985;SDS011;10154;52.474;10.768;2023-02-02T05:29:50;12.13;;;1.77;;
19985;SDS011;10154;52.474;10.768;2023-02-02T05:32:15;10.47;;;1.63;;
19985;SDS011;10154;52.474;10.768;2023-02-02T05:34:41;20.63;;;2.40;;
19985;SDS011;10154;52.474;10.768;2023-02-02T05:37:06;18.20;;;2.80;;
19985;SDS011;10154;52.474;10.768;2023-02-02T05:39:31;15.20;;;2.00;;
19985;SDS011;10154;52.474;10.768;2023-02-02T05:41:57;22.13;;;2.43;;
19985;SDS011;10154;52.474;10.768;2023-02-02T05:44:22;13.83;;;1.70;;
19985;SDS011;10154;52.474;10.768;2023-02-02T05:46:48;6.70;;;1.10;;
19985;SDS011;10154;52.474;10.768;2023-02-02T05:49:13;21.07;;;2.33;;
19985;SDS011;10154;52.474;10.768;2023-02-02T05:51:49;9.10;;;1.10;;
19985;SDS011;10154;52.474;10.768;2023-02-02T05:54:16;19.20;;;2.20;;
19985;SDS011;10154;52.474;10.768;2023-02-02T05:56:47;9.73;;;1.67;;
19985;SDS011;10154;52.474;10.768;2023-02-02T05:59:14;9.30;;;1.23;;
19985;SDS011;10154;52.474;10.768;2023-02-02T06:01:43;15.27;;;2.60;;
19985;SDS011;10154;52.474;10.768;2023-02-02T06:04:11;20.37;;;2.27;;
19985;SDS011;10154;52.474;10.768;2023-02-02T06:06:37;10.93;;;2.07;;
19985;SDS011;10154;52.474;10.768;2023-02-02T06:09:03;18.50;;;2.80;;
19985;SDS011;10154;52.474;10.768;2023-02-02T06:11:29;23.80;;;3.07;;
19985;SDS011;10154;52.474;10.768;2023-02-02T06:13:55;19.17;;;2.23;;
19985;SDS011;10154;52.474;10.768;2023-02-02T06:16:21;21.93;;;2.67;;
19985;SDS011;10154;52.474;10.768;2023-02-02T06:18:46;11.77;;;1.53;;
19985;SDS011;10154;52.474;10.768;2023-02-02T06:21:12;34.90;;;4.90;;
19985;SDS011;10154;52.474;10.768;2023-02-02T06:23:38;25.17;;;3.27;;
19985;SDS011;10154;52.474;10.768;2023-02-02T06:26:09;25.60;;;3.47;;
19985;SDS011;10154;52.474;10.768;2023-02-02T06:28:36;15.33;;;1.77;;
19985;SDS011;10154;52.474;10.768;2023-02-02T06:31:04;7.03;;;1.50;;
19985;SDS011;10154;52.474;10.768;2023-02-02T06:33:30;10.33;;;1.87;;
19985;SDS011;10154;52.474;10.768;2023-02-02T06:36:00;10.00;;;1.90;;
19985;SDS011;10154;52.474;10.768;2023-02-02T06:38:26;22.87;;;2.80;;
19985;SDS011;10154;52.474;10.768;2023-02-02T06:40:51;16.67;;;2.13;;
19985;SDS011;10154;52.474;10.768;2023-02-02T06:43:17;18.03;;;2.47;;
19985;SDS011;10154;52.474;10.768;2023-02-02T06:45:43;8.33;;;1.97;;
19985;SDS011;10154;52.474;10.768;2023-02-02T06:48:08;11.50;;;1.93;;
19985;SDS011;10154;52.474;10.768;2023-02-02T06:50:37;26.27;;;3.10;;
19985;SDS011;10154;52.474;10.768;2023-02-02T06:53:03;23.77;;;2.20;;
19985;SDS011;10154;52.474;10.768;2023-02-02T06:55:28;19.37;;;2.47;;
19985;SDS011;10154;52.474;10.768;2023-02-02T06:57:57;24.47;;;2.60;;
19985;SDS011;10154;52.474;10.768;2023-02-02T07:00:24;15.37;;;2.93;;
19985;SDS011;10154;52.474;10.768;2023-02-02T07:02:50;14.40;;;2.50;;
19985;SDS011;10154;52.474;10.768;2023-02-02T07:05:16;19.93;;;2.57;;
19985;SDS011;10154;52.474;10.768;2023-02-02T07:07:43;23.33;;;2.40;;
19985;SDS011;10154;52.474;10.768;2023-02-02T07:10:09;20.80;;;1.97;;
19985;SDS011;10154;52.474;10.768;2023-02-02T07:12:35;18.73;;;1.93;;
19985;SDS011;10154;52.474;10.768;2023-02-02T07:15:00;16.87;;;2.00;;
19985;SDS011;10154;52.474;10.768;2023-02-02T07:17:26;18.53;;;2.57;;
19985;SDS011;10154;52.474;10.768;2023-02-02T07:19:51;13.37;;;1.97;;
19985;SDS011;10154;52.474;10.768;2023-02-02T07:22:16;29.23;;;2.87;;
19985;SDS011;10154;52.474;10.768;2023-02-02T07:24:42;27.10;;;2.67;;
19985;SDS011;10154;52.474;10.768;2023-02-02T07:27:07;30.37;;;2.40;;
19985;SDS011;10154;52.474;10.768;2023-02-02T07:29:32;19.90;;;2.00;;
19985;SDS011;10154;52.474;10.768;2023-02-02T07:31:58;27.80;;;2.70;;
19985;SDS011;10154;52.474;10.768;2023-02-02T07:34:23;26.10;;;2.63;;
19985;SDS011;10154;52.474;10.768;2023-02-02T07:36:49;23.03;;;2.20;;
19985;SDS011;10154;52.474;10.768;2023-02-02T07:39:14;6.47;;;1.47;;
19985;SDS011;10154;52.474;10.768;2023-02-02T07:41:40;27.17;;;3.00;;
19985;SDS011;10154;52.474;10.768;2023-02-02T07:44:09;21.20;;;3.07;;
19985;SDS011;10154;52.474;10.768;2023-02-02T07:46:39;11.73;;;1.57;;
19985;SDS011;10154;52.474;10.768;2023-02-02T07:49:04;28.13;;;2.50;;
19985;SDS011;10154;52.474;10.768;2023-02-02T07:51:30;16.07;;;2.23;;
19985;SDS011;10154;52.474;10.768;2023-02-02T07:53:55;15.90;;;1.87;;
19985;SDS011;10154;52.474;10.768;2023-02-02T07:56:23;26.03;;;2.67;;
19985;SDS011;10154;52.474;10.768;2023-02-02T07:58:51;11.63;;;1.07;;
19985;SDS011;10154;52.474;10.768;2023-02-02T08:01:17;24.03;;;2.80;;
19985;SDS011;10154;52.474;10.768;2023-02-02T08:03:44;21.30;;;2.53;;
19985;SDS011;10154;52.474;10.768;2023-02-02T08:06:12;5.97;;;1.13;;
19985;SDS011;10154;52.474;10.768;2023-02-02T08:08:44;13.30;;;2.07;;
19985;SDS011;10154;52.474;10.768;2023-02-02T08:11:10;26.30;;;2.60;;
19985;SDS011;10154;52.474;10.768;2023-02-02T08:13:37;9.30;;;1.63;;
19985;SDS011;10154;52.474;10.768;2023-02-02T08:16:02;23.80;;;2.70;;
19985;SDS011;10154;52.474;10.768;2023-02-02T08:18:28;16.87;;;2.00;;
19985;SDS011;10154;52.474;10.768;2023-02-02T08:20:56;30.50;;;3.40;;
19985;SDS011;10154;52.474;10.768;2023-02-02T08:23:22;18.40;;;2.50;;
19985;SDS011;10154;52.474;10.768;2023-02-02T08:25:51;28.07;;;3.10;;
19985;SDS011;10154;52.474;10.768;2023-02-02T08:28:17;24.27;;;2.70;;
19985;SDS011;10154;52.474;10.768;2023-02-02T08:30:42;26.67;;;3.07;;
19985;SDS011;10154;52.474;10.768;2023-02-02T08:33:08;17.77;;;2.03;;
19985;SDS011;10154;52.474;10.768;2023-02-02T08:35:33;31.80;;;3.03;;
19985;SDS011;10154;52.474;10.768;2023-02-02T08:37:59;21.00;;;2.53;;
19985;SDS011;10154;52.474;10.768;2023-02-02T08:40:27;24.10;;;3.77;;
19985;SDS011;10154;52.474;10.768;2023-02-02T08:42:59;22.63;;;2.87;;
19985;SDS011;10154;52.474;10.768;2023-02-02T08:45:27;20.17;;;2.50;;
19985;SDS011;10154;52.474;10.768;2023-02-02T08:48:03;21.73;;;2.60;;
19985;SDS011;10154;52.474;10.768;2023-02-02T08:50:29;15.43;;;1.30;;
19985;SDS011;10154;52.474;10.768;2023-02-02T08:52:54;25.57;;;3.17;;
19985;SDS011;10154;52.474;10.768;2023-02-02T08:55:20;27.83;;;2.93;;
19985;SDS011;10154;52.474;10.768;2023-02-02T08:57:46;8.80;;;1.53;;
19985;SDS011;10154;52.474;10.768;2023-02-02T09:00:11;23.93;;;2.67;;
19985;SDS011;10154;52.474;10.768;2023-02-02T09:02:37;21.40;;;2.20;;
19985;SDS011;10154;52.474;10.768;2023-02-02T09:05:02;14.17;;;2.27;;
19985;SDS011;10154;52.474;10.768;2023-02-02T09:07:28;20.13;;;2.60;;
19985;SDS011;10154;52.474;10.768;2023-02-02T09:09:53;24.00;;;2.90;;
19985;SDS011;10154;52.474;10.768;2023-02-02T09:12:22;23.43;;;3.00;;
19985;SDS011;10154;52.474;10.768;2023-02-02T09:14:47;27.80;;;2.70;;
19985;SDS011;10154;52.474;10.768;2023-02-02T09:17:13;23.17;;;3.00;;
19985;SDS011;10154;52.474;10.768;2023-02-02T09:19:38;19.40;;;2.17;;
19985;SDS011;10154;52.474;10.768;2023-02-02T09:22:03;24.33;;;2.87;;
19985;SDS011;10154;52.474;10.768;2023-02-02T09:24:29;26.93;;;2.90;;
19985;SDS011;10154;52.474;10.768;2023-02-02T09:26:54;8.60;;;1.43;;
19985;SDS011;10154;52.474;10.768;2023-02-02T09:29:20;7.53;;;0.93;;
19985;SDS011;10154;52.474;10.768;2023-02-02T09:31:45;26.00;;;3.53;;
19985;SDS011;10154;52.474;10.768;2023-02-02T09:34:11;13.60;;;2.27;;
19985;SDS011;10154;52.474;10.768;2023-02-02T09:36:38;21.77;;;2.60;;
19985;SDS011;10154;52.474;10.768;2023-02-02T09:39:06;28.73;;;2.43;;
19985;SDS011;10154;52.474;10.768;2023-02-02T09:49:23;9.90;;;1.33;;
19985;SDS011;10154;52.474;10.768;2023-02-02T09:52:03;19.70;;;3.17;;
19985;SDS011;10154;52.474;10.768;2023-02-02T09:57:51;22.90;;;3.00;;
19985;SDS011;10154;52.474;10.768;2023-02-02T10:00:30;20.50;;;2.67;;
19985;SDS011;10154;52.474;10.768;2023-02-02T10:03:03;10.37;;;1.70;;
19985;SDS011;10154;52.474;10.768;2023-02-02T10:05:54;26.60;;;2.73;;
19985;SDS011;10154;52.474;10.768;2023-02-02T10:08:32;22.13;;;2.37;;
19985;SDS011;10154;52.474;10.768;2023-02-02T10:11:00;20.63;;;2.00;;
19985;SDS011;10154;52.474;10.768;2023-02-02T10:13:32;21.23;;;2.20;;
19985;SDS011;10154;52.474;10.768;2023-02-02T10:16:17;24.40;;;2.57;;
19985;SDS011;10154;52.474;10.768;2023-02-02T10:18:45;22.33;;;2.80;;
19985;SDS011;10154;52.474;10.768;2023-02-02T10:21:25;24.00;;;2.63;;
19985;SDS011;10154;52.474;10.768;2023-02-02T10:23:55;17.07;;;1.83;;
19985;SDS011;10154;52.474;10.768;2023-02-02T10:31:54;6.10;;;1.30;;
19985;SDS011;10154;52.474;10.768;2023-02-02T10:42:14;22.37;;;2.27;;
19985;SDS011;10154;52.474;10.768;2023-02-02T10:44:53;23.77;;;2.80;;
19985;SDS011;10154;52.474;10.768;2023-02-02T10:47:25;15.23;;;1.70;;
19985;SDS011;10154;52.474;10.768;2023-02-02T10:49:54;27.27;;;3.47;;
19985;SDS011;10154;52.474;10.768;2023-02-02T10:52:32;27.93;;;2.63;;
19985;SDS011;10154;52.474;10.768;2023-02-02T10:55:05;14.70;;;1.90;;
19985;SDS011;10154;52.474;10.768;2023-02-02T10:57:33;27.70;;;2.60;;
19985;SDS011;10154;52.474;10.768;2023-02-02T11:02:56;9.00;;;2.13;;
19985;SDS011;10154;52.474;10.768;2023-02-02T11:05:23;22.23;;;2.60;;
19985;SDS011;10154;52.474;10.768;2023-02-02T11:08:19;27.13;;;2.87;;
19985;SDS011;10154;52.474;10.768;2023-02-02T11:10:47;20.00;;;2.53;;
19985;SDS011;10154;52.474;10.768;2023-02-02T11:13:15;24.30;;;2.70;;
19985;SDS011;10154;52.474;10.768;2023-02-02T11:15:45;19.60;;;2.30;;
19985;SDS011;10154;52.474;10.768;2023-02-02T11:18:11;17.10;;;2.10;;
19985;SDS011;10154;52.474;10.768;2023-02-02T11:20:40;15.63;;;1.93;;
19985;SDS011;10154;52.474;10.768;2023-02-02T11:23:05;21.63;;;2.40;;
19985;SDS011;10154;52.474;10.768;2023-02-02T11:25:37;23.30;;;2.50;;
19985;SDS011;10154;52.474;10.768;2023-02-02T11:30:58;13.93;;;1.27;;
19985;SDS011;10154;52.474;10.768;2023-02-02T11:33:31;16.60;;;2.27;;
19985;SDS011;10154;52.474;10.768;2023-02-02T11:35:58;14.53;;;1.80;;
19985;SDS011;10154;52.474;10.768;2023-02-02T11:38:24;15.57;;;2.63;;
19985;SDS011;10154;52.474;10.768;2023-02-02T11:40:54;17.53;;;2.10;;
19985;SDS011;10154;52.474;10.768;2023-02-02T11:45:53;11.10;;;2.10;;
19985;SDS011;10154;52.474;10.768;2023-02-02T11:48:36;19.37;;;2.70;;
19985;SDS011;10154;52.474;10.768;2023-02-02T11:51:03;12.27;;;1.90;;
19985;SDS011;10154;52.474;10.768;2023-02-02T11:53:33;14.37;;;1.90;;
19985;SDS011;10154;52.474;10.768;2023-02-02T11:56:16;25.53;;;2.60;;
19985;SDS011;10154;52.474;10.768;2023-02-02T11:58:50;18.50;;;3.03;;
19985;SDS011;10154;52.474;10.768;2023-02-02T12:03:56;17.97;;;2.07;;
19985;SDS011;10154;52.474;10.768;2023-02-02T12:06:44;18.30;;;2.63;;
19985;SDS011;10154;52.474;10.768;2023-02-02T12:09:11;16.67;;;2.07;;
19985;SDS011;10154;52.474;10.768;2023-02-02T12:17:13;14.60;;;2.33;;
19985;SDS011;10154;52.474;10.768;2023-02-02T12:27:49;17.80;;;1.77;;
19985;SDS011;10154;52.474;10.768;2023-02-02T12:43:45;16.33;;;2.13;;
19985;SDS011;10154;52.474;10.768;2023-02-02T12:47:10;21.97;;;2.40;;
19985;SDS011;10154;52.474;10.768;2023-02-02T12:49:35;22.00;;;2.73;;
19985;SDS011;10154;52.474;10.768;2023-02-02T13:03:37;17.53;;;2.13;;
19985;SDS011;10154;52.474;10.768;2023-02-02T13:06:26;12.30;;;2.10;;
19985;SDS011;10154;52.474;10.768;2023-02-02T13:09:13;18.07;;;2.03;;
19985;SDS011;10154;52.474;10.768;2023-02-02T13:11:43;13.53;;;1.50;;
19985;SDS011;10154;52.474;10.768;2023-02-02T13:17:28;15.77;;;2.03;;
19985;SDS011;10154;52.474;10.768;2023-02-02T13:20:04;14.63;;;2.10;;
19985;SDS011;10154;52.474;10.768;2023-02-02T13:22:34;11.50;;;2.00;;
19985;SDS011;10154;52.474;10.768;2023-02-02T13:25:01;16.67;;;2.10;;
19985;SDS011;10154;52.474;10.768;2023-02-02T13:27:29;20.57;;;2.17;;
19985;SDS011;10154;52.474;10.768;2023-02-02T13:33:00;15.00;;;1.90;;
19985;SDS011;10154;52.474;10.768;2023-02-02T13:35:49;13.30;;;1.77;;
19985;SDS011;10154;52.474;10.768;2023-02-02T13:38:24;11.90;;;1.87;;
19985;SDS011;10154;52.474;10.768;2023-02-02T13:41:01;13.60;;;2.00;;
19985;SDS011;10154;52.474;10.768;2023-02-02T13:43:37;13.77;;;2.00;;
19985;SDS011;10154;52.474;10.768;2023-02-02T13:49:02;17.73;;;1.97;;
19985;SDS011;10154;52.474;10.768;2023-02-02T13:51:41;10.40;;;2.10;;
19985;SDS011;10154;52.474;10.768;2023-02-02T13:57:17;14.10;;;1.80;;
19985;SDS011;10154;52.474;10.768;2023-02-02T14:02:46;9.53;;;1.40;;
19985;SDS011;10154;52.474;10.768;2023-02-02T14:07:45;18.07;;;2.00;;
19985;SDS011;10154;52.474;10.768;2023-02-02T14:10:22;13.53;;;1.80;;
19985;SDS011;10154;52.474;10.768;2023-02-02T14:12:52;9.50;;;1.83;;
19985;SDS011;10154;52.474;10.768;2023-02-02T14:15:22;9.23;;;1.33;;
19985;SDS011;10154;52.474;10.768;2023-02-02T14:18:00;12.93;;;1.70;;
19985;SDS011;10154;52.474;10.768;2023-02-02T14:20:45;8.97;;;1.30;;
19985;SDS011;10154;52.474;10.768;2023-02-02T14:26:45;14.20;;;1.50;;
19985;SDS011;10154;52.474;10.768;2023-02-02T14:34:31;16.60;;;2.10;;
19985;SDS011;10154;52.474;10.768;2023-02-02T14:45:43;11.63;;;1.37;;
19985;SDS011;10154;52.474;10.768;2023-02-02T14:48:09;15.93;;;1.93;;
19985;SDS011;10154;52.474;10.768;2023-02-02T14:53:04;10.40;;;3.03;;
19985;SDS011;10154;52.474;10.768;2023-02-02T14:55:48;8.13;;;2.00;;
19985;SDS011;10154;52.474;10.768;2023-02-02T14:58:26;12.30;;;2.67;;
19985;SDS011;10154;52.474;10.768;2023-02-02T15:01:40;10.90;;;2.53;;
19985;SDS011;10154;52.474;10.768;2023-02-02T15:06:45;10.77;;;2.40;;
19985;SDS011;10154;52.474;10.768;2023-02-02T15:28:24;6.30;;;1.70;;
19985;SDS011;10154;52.474;10.768;2023-02-02T15:33:58;7.47;;;1.73;;
19985;SDS011;10154;52.474;10.768;2023-02-02T15:36:27;7.20;;;1.50;;
19985;SDS011;10154;52.474;10.768;2023-02-02T15:38:58;10.07;;;2.90;;
19985;SDS011;10154;52.474;10.768;2023-02-02T15:41:33;10.47;;;2.40;;
19985;SDS011;10154;52.474;10.768;2023-02-02T15:44:01;8.60;;;1.50;;
19985;SDS011;10154;52.474;10.768;2023-02-02T15:46:42;5.90;;;1.50;;
19985;SDS011;10154;52.474;10.768;2023-02-02T15:51:56;7.53;;;1.50;;
19985;SDS011;10154;52.474;10.768;2023-02-02T15:54:27;8.77;;;1.20;;
19985;SDS011;10154;52.474;10.768;2023-02-02T15:56:55;6.93;;;1.07;;
19985;SDS011;10154;52.474;10.768;2023-02-02T15:59:23;4.70;;;1.20;;
19985;SDS011;10154;52.474;10.768;2023-02-02T16:04:34;10.53;;;1.47;;
19985;SDS011;10154;52.474;10.768;2023-02-02T16:07:02;11.77;;;2.00;;
19985;SDS011;10154;52.474;10.768;2023-02-02T16:09:32;9.63;;;1.50;;
19985;SDS011;10154;52.474;10.768;2023-02-02T16:11:59;12.93;;;2.53;;
19985;SDS011;10154;52.474;10.768;2023-02-02T16:14:25;6.33;;;1.63;;
19985;SDS011;10154;52.474;10.768;2023-02-02T16:16:51;9.10;;;1.70;;
19985;SDS011;10154;52.474;10.768;2023-02-02T16:19:20;6.30;;;1.67;;
19985;SDS011;10154;52.474;10.768;2023-02-02T16:21:55;9.67;;;1.47;;
19985;SDS011;10154;52.474;10.768;2023-02-02T16:24:27;9.17;;;1.80;;
19985;SDS011;10154;52.474;10.768;2023-02-02T16:27:01;5.23;;;1.60;;
19985;SDS011;10154;52.474;10.768;2023-02-02T16:29:30;14.53;;;1.80;;
19985;SDS011;10154;52.474;10.768;2023-02-02T16:31:57;9.30;;;2.30;;
19985;SDS011;10154;52.474;10.768;2023-02-02T16:37:10;10.23;;;2.17;;
19985;SDS011;10154;52.474;10.768;2023-02-02T16:39:38;11.70;;;2.20;;
19985;SDS011;10154;52.474;10.768;2023-02-02T16:42:10;15.63;;;2.53;;
19985;SDS011;10154;52.474;10.768;2023-02-02T16:44:45;18.47;;;2.80;;
19985;SDS011;10154;52.474;10.768;2023-02-02T16:47:29;13.17;;;2.23;;
19985;SDS011;10154;52.474;10.768;2023-02-02T16:52:34;18.20;;;3.30;;
19985;SDS011;10154;52.474;10.768;2023-02-02T16:55:14;31.20;;;5.17;;
19985;SDS011;10154;52.474;10.768;2023-02-02T16:57:40;18.20;;;3.53;;
19985;SDS011;10154;52.474;10.768;2023-02-02T17:00:16;59.33;;;10.07;;
19985;SDS011;10154;52.474;10.768;2023-02-02T17:02:47;40.53;;;8.43;;
19985;SDS011;10154;52.474;10.768;2023-02-02T17:05:27;32.17;;;7.50;;
19985;SDS011;10154;52.474;10.768;2023-02-02T17:07:56;105.77;;;22.43;;
19985;SDS011;10154;52.474;10.768;2023-02-02T17:10:25;33.70;;;9.50;;
19985;SDS011;10154;52.474;10.768;2023-02-02T17:12:55;129.60;;;25.63;;
19985;SDS011;10154;52.474;10.768;2023-02-02T17:15:33;52.23;;;11.80;;
19985;SDS011;10154;52.474;10.768;2023-02-02T17:17:59;33.60;;;7.70;;
19985;SDS011;10154;52.474;10.768;2023-02-02T17:20:25;43.27;;;9.20;;
19985;SDS011;10154;52.474;10.768;2023-02-02T17:22:53;50.10;;;12.40;;
19985;SDS011;10154;52.474;10.768;2023-02-02T17:25:24;40.23;;;9.17;;